Time;durP1;ratioP1;P1;durP2;ratioP2;P2;SDS_P1;SDS_P2;PMS_P1;PMS_P2;Temp;Humidity;BMP_temperature;BMP_pressure;BME280_temperature;BME280_humidity;BME280_pressure;Samples;Min_cycle;Max_cycle;Signal;HPM_P1;HPM_P2
2023/06/25 00:00:57;;;;;;;22.60;14.57;;;;;;;17.87;100.00;102213.34;7371604;19;20454;-38
2023/06/25 00:03:26;;;;;;;23.23;12.83;;;;;;;17.81;100.00;102202.69;7395471;19;20931;-39
2023/06/25 00:05:56;;;;;;;22.60;14.00;;;;;;;17.77;100.00;102198.19;7372906;19;20472;-39
2023/06/25 00:08:26;;;;;;;22.03;13.50;;;;;;;17.76;100.00;102204.22;7396476;19;20426;-39
2023/06/25 00:10:58;;;;;;;22.80;14.13;;;;;;;17.65;100.00;102191.69;7372079;19;20459;-39
2023/06/25 00:13:27;;;;;;;19.70;12.37;;;;;;;17.54;100.00;102183.47;7395333;19;20495;-39
2023/06/25 00:15:57;;;;;;;25.83;14.93;;;;;;;17.50;100.00;102165.06;7373193;19;20430;-39
2023/06/25 00:18:27;;;;;;;27.87;15.27;;;;;;;17.48;100.00;102161.53;7396994;19;20841;-39
2023/06/25 00:20:56;;;;;;;25.13;13.27;;;;;;;17.47;100.00;102155.41;7371389;19;20470;-39
2023/06/25 00:23:26;;;;;;;21.93;13.70;;;;;;;17.46;100.00;102152.75;7394343;19;20418;-40
2023/06/25 00:25:58;;;;;;;24.87;15.00;;;;;;;17.39;100.00;102147.31;7373044;19;20949;-40
2023/06/25 00:28:28;;;;;;;20.10;13.60;;;;;;;17.39;100.00;102144.69;7391902;19;20417;-37
2023/06/25 00:30:58;;;;;;;23.63;14.80;;;;;;;17.37;100.00;102128.09;7392262;19;20443;-39
2023/06/25 00:33:27;;;;;;;20.13;13.60;;;;;;;17.37;100.00;102127.22;7395589;19;20420;-38
2023/06/25 00:36:06;;;;;;;24.03;14.90;;;;;;;17.32;100.00;102119.22;7372539;19;20526;-39
2023/06/25 00:38:40;;;;;;;24.10;14.90;;;;;;;17.34;100.00;102114.94;7377935;19;20407;-39
2023/06/25 00:41:13;;;;;;;22.20;15.53;;;;;;;17.22;100.00;102106.72;7399917;19;20408;-39
2023/06/25 00:43:43;;;;;;;35.33;17.23;;;;;;;17.11;100.00;102094.16;7377399;19;20430;-39
2023/06/25 00:46:15;;;;;;;26.17;15.63;;;;;;;17.07;100.00;102087.06;7400003;19;20414;-40
2023/06/25 00:48:47;;;;;;;29.43;16.10;;;;;;;17.03;100.00;102064.34;7379337;19;20944;-39
2023/06/25 00:51:21;;;;;;;23.60;14.20;;;;;;;17.06;100.00;102042.66;7403093;19;21396;-38
2023/06/25 00:53:51;;;;;;;25.00;16.47;;;;;;;17.01;100.00;102030.34;7377511;19;20394;-39
2023/06/25 00:56:27;;;;;;;24.13;15.03;;;;;;;17.02;100.00;102005.19;7401970;19;20406;-39
2023/06/25 00:59:00;;;;;;;25.80;15.83;;;;;;;17.00;100.00;101992.09;7375184;19;20403;-40
2023/06/25 01:01:36;;;;;;;21.70;14.57;;;;;;;16.98;100.00;101983.31;7399914;19;20403;-38
2023/06/25 01:04:11;;;;;;;27.00;16.10;;;;;;;17.08;100.00;101973.25;7375178;19;20474;-40
2023/06/25 01:06:47;;;;;;;23.63;13.83;;;;;;;17.21;100.00;101969.31;7399008;19;20430;-40
2023/06/25 01:09:17;;;;;;;24.73;15.53;;;;;;;17.25;100.00;101976.41;7375116;19;20466;-40
2023/06/25 01:12:02;;;;;;;25.73;15.33;;;;;;;17.29;100.00;101983.50;7400939;19;20424;-39
2023/06/25 01:14:32;;;;;;;23.93;15.70;;;;;;;17.16;100.00;101991.75;7375387;19;20978;-40
2023/06/25 01:17:02;;;;;;;27.93;16.40;;;;;;;17.05;100.00;101984.44;7403397;19;20412;-40
2023/06/25 01:19:32;;;;;;;28.63;17.77;;;;;;;16.95;100.00;101982.31;7374890;19;20431;-39
2023/06/25 01:22:02;;;;;;;29.00;16.67;;;;;;;16.90;100.00;101969.13;7400710;19;20422;-39
2023/06/25 01:24:36;;;;;;;27.87;16.83;;;;;;;16.87;100.00;101964.69;7377437;19;20423;-41
2023/06/25 01:27:06;;;;;;;24.83;15.63;;;;;;;16.95;100.00;101953.63;7402488;19;20411;-40
2023/06/25 01:29:38;;;;;;;28.43;16.73;;;;;;;16.88;100.00;101953.44;7378236;19;20455;-40
2023/06/25 01:32:09;;;;;;;30.87;17.80;;;;;;;16.76;100.00;101934.75;7403229;19;20422;-39
2023/06/25 01:34:38;;;;;;;28.60;17.00;;;;;;;16.73;100.00;101919.03;7378090;19;20821;-40
2023/06/25 01:37:08;;;;;;;30.83;18.30;;;;;;;16.73;100.00;101908.59;7404892;19;20428;-40
2023/06/25 01:39:41;;;;;;;33.20;19.90;;;;;;;16.71;100.00;101892.00;7375620;19;20981;-40
2023/06/25 01:42:10;;;;;;;36.63;19.43;;;;;;;16.76;100.00;101880.03;7400938;19;20416;-39
2023/06/25 01:44:40;;;;;;;26.90;17.00;;;;;;;16.69;100.00;101878.06;7376126;19;20455;-40
2023/06/25 01:47:10;;;;;;;26.73;16.50;;;;;;;16.66;100.00;101859.72;7399732;19;20467;-40
2023/06/25 01:49:39;;;;;;;28.60;16.90;;;;;;;16.59;100.00;101849.09;7371921;19;20510;-40
2023/06/25 01:52:09;;;;;;;29.13;16.30;;;;;;;16.55;100.00;101835.88;7399885;19;21022;-39
2023/06/25 01:54:42;;;;;;;26.10;15.20;;;;;;;16.77;100.00;101815.78;7374940;19;20415;-39
2023/06/25 01:57:11;;;;;;;27.53;15.83;;;;;;;16.76;100.00;101808.81;7399990;19;20454;-40
2023/06/25 01:59:41;;;;;;;23.87;13.00;;;;;;;16.76;100.00;101804.47;7375031;19;20435;-39
2023/06/25 02:02:10;;;;;;;23.53;14.00;;;;;;;16.69;100.00;101806.00;7399439;19;20416;-39
2023/06/25 02:04:40;;;;;;;18.77;13.10;;;;;;;16.67;100.00;101804.19;7373775;19;20431;-40
2023/06/25 02:07:10;;;;;;;21.83;14.20;;;;;;;16.57;100.00;101803.84;7401359;19;20499;-42
2023/06/25 02:09:42;;;;;;;21.40;15.50;;;;;;;16.56;100.00;101791.66;7374052;19;20431;-40
2023/06/25 02:12:12;;;;;;;21.80;14.17;;;;;;;16.45;100.00;101795.63;7399713;19;20414;-41
2023/06/25 02:14:41;;;;;;;20.90;13.40;;;;;;;16.47;100.00;101783.56;7374303;19;20407;-40
2023/06/25 02:17:11;;;;;;;24.43;15.10;;;;;;;16.38;100.00;101785.84;7399574;19;20412;-40
2023/06/25 02:19:40;;;;;;;19.97;13.90;;;;;;;16.24;100.00;101767.16;7373655;19;20498;-41
2023/06/25 02:22:10;;;;;;;20.60;13.77;;;;;;;16.28;100.00;101749.09;7398753;19;20404;-40
2023/06/25 02:24:42;;;;;;;24.60;15.90;;;;;;;16.28;100.00;101738.66;7373295;19;21083;-39
2023/06/25 02:27:11;;;;;;;17.90;12.13;;;;;;;16.32;100.00;101731.84;7398583;19;20407;-38
2023/06/25 02:29:41;;;;;;;24.50;15.30;;;;;;;16.39;100.00;101710.38;7372809;19;20444;-40
2023/06/25 02:32:11;;;;;;;25.53;16.80;;;;;;;16.33;100.00;101704.97;7399283;19;20411;-39
2023/06/25 02:34:40;;;;;;;30.70;19.50;;;;;;;16.20;100.00;101711.47;7372713;19;20411;-40
2023/06/25 02:37:15;;;;;;;29.70;19.00;;;;;;;16.23;100.00;101701.16;7398280;19;20400;-41
2023/06/25 02:39:47;;;;;;;31.30;19.20;;;;;;;16.20;100.00;101698.44;7371760;19;21069;-40
2023/06/25 02:42:16;;;;;;;37.33;18.63;;;;;;;16.33;100.00;101695.44;7399055;19;20412;-39
2023/06/25 02:44:46;;;;;;;55.93;32.00;;;;;;;16.30;100.00;101692.72;7372214;19;20452;-39
2023/06/25 02:47:16;;;;;;;42.07;20.50;;;;;;;16.11;100.00;101693.84;7397699;19;20591;-39
2023/06/25 02:49:46;;;;;;;42.13;24.80;;;;;;;16.01;100.00;101691.75;7372984;19;20442;-40
2023/06/25 02:52:15;;;;;;;36.40;22.13;;;;;;;16.11;100.00;101688.63;7397960;19;20942;-42
2023/06/25 02:54:47;;;;;;;30.83;19.57;;;;;;;16.27;100.00;101692.63;7372196;19;20427;-39
2023/06/25 02:57:17;;;;;;;33.10;20.73;;;;;;;16.41;100.00;101698.28;7398943;19;20499;-40
2023/06/25 02:59:47;;;;;;;31.10;19.00;;;;;;;16.51;100.00;101707.28;7370699;19;21416;-39
2023/06/25 03:02:16;;;;;;;30.37;18.70;;;;;;;16.56;100.00;101710.91;7397975;19;20407;-40
2023/06/25 03:04:46;;;;;;;31.40;20.30;;;;;;;16.51;100.00;101725.50;7373693;19;20411;-39
2023/06/25 03:07:16;;;;;;;33.80;20.57;;;;;;;16.42;100.00;101735.63;7397907;19;20412;-42
2023/06/25 03:09:48;;;;;;;31.67;18.40;;;;;;;16.31;100.00;101733.53;7373178;19;21124;-40
2023/06/25 03:12:18;;;;;;;52.10;31.03;;;;;;;16.36;100.00;101731.09;7397593;19;20793;-39
2023/06/25 03:14:47;;;;;;;56.93;32.10;;;;;;;16.32;100.00;101730.09;7372428;19;20774;-40
2023/06/25 03:17:17;;;;;;;41.40;24.60;;;;;;;16.17;100.00;101734.81;7399280;19;20487;-40
2023/06/25 03:19:46;;;;;;;59.00;31.77;;;;;;;16.14;100.00;101730.38;7370785;19;20900;-39
2023/06/25 03:22:16;;;;;;;46.57;28.80;;;;;;;16.20;100.00;101737.50;7397824;19;20775;-40
2023/06/25 03:24:48;;;;;;;39.03;23.23;;;;;;;16.18;100.00;101731.38;7372115;19;20478;-39
2023/06/25 03:27:18;;;;;;;41.70;24.70;;;;;;;16.29;100.00;101727.41;7397709;19;20414;-39
2023/06/25 03:29:47;;;;;;;32.27;20.37;;;;;;;16.33;100.00;101728.41;7371394;19;20458;-40
2023/06/25 03:32:17;;;;;;;33.30;19.43;;;;;;;16.16;100.00;101727.84;7398152;19;21071;-39
2023/06/25 03:34:47;;;;;;;32.70;20.80;;;;;;;16.10;100.00;101738.03;7371822;19;20427;-39
2023/06/25 03:37:16;;;;;;;30.83;19.67;;;;;;;16.14;100.00;101727.78;7397027;19;20483;-40
2023/06/25 03:39:49;;;;;;;34.63;22.07;;;;;;;16.17;100.00;101730.50;7371194;19;20462;-39
2023/06/25 03:42:18;;;;;;;59.03;33.43;;;;;;;16.12;100.00;101726.84;7397013;19;20441;-40
2023/06/25 03:44:50;;;;;;;44.63;26.10;;;;;;;16.13;100.00;101723.41;7371282;19;20490;-40
2023/06/25 03:47:19;;;;;;;33.27;21.57;;;;;;;16.19;100.00;101722.72;7398451;19;20416;-40
2023/06/25 03:49:49;;;;;;;60.67;34.33;;;;;;;16.23;100.00;101718.50;7370828;19;20467;-40
2023/06/25 03:52:19;;;;;;;27.57;17.57;;;;;;;16.35;100.00;101720.66;7396268;19;20963;-39
2023/06/25 03:54:51;;;;;;;28.33;16.83;;;;;;;16.42;100.00;101720.88;7370978;19;20431;-39
2023/06/25 03:57:22;;;;;;;24.40;16.50;;;;;;;16.49;100.00;101726.28;7398444;19;20957;-38
2023/06/25 03:59:52;;;;;;;22.80;14.80;;;;;;;16.41;100.00;101733.88;7370211;19;20758;-41
2023/06/25 04:02:21;;;;;;;19.50;12.50;;;;;;;16.33;100.00;101737.09;7397170;19;20927;-40
2023/06/25 04:04:51;;;;;;;21.10;12.90;;;;;;;16.27;100.00;101739.50;7370266;19;20439;-41
2023/06/25 04:07:20;;;;;;;15.23;10.83;;;;;;;16.23;100.00;101740.22;7396815;19;20970;-40
2023/06/25 04:09:53;;;;;;;19.17;12.63;;;;;;;16.16;100.00;101743.47;7369578;19;20459;-40
2023/06/25 04:12:22;;;;;;;15.97;10.70;;;;;;;16.18;100.00;101736.56;7400680;19;20408;-41
2023/06/25 04:14:52;;;;;;;17.47;11.37;;;;;;;16.21;100.00;101734.09;7376640;19;20423;-41
2023/06/25 04:17:22;;;;;;;17.80;12.00;;;;;;;16.25;100.00;101732.47;7407744;19;20367;-41
2023/06/25 04:19:54;;;;;;;18.47;12.13;;;;;;;16.28;100.00;101733.47;7377138;19;20470;-40
2023/06/25 04:22:23;;;;;;;17.57;11.67;;;;;;;16.30;100.00;101731.78;7403568;19;20423;-41
2023/06/25 04:24:55;;;;;;;18.30;12.93;;;;;;;16.41;100.00;101734.75;7376730;19;20419;-41
2023/06/25 04:27:25;;;;;;;16.30;11.57;;;;;;;16.51;100.00;101735.06;7407238;19;20405;-39
2023/06/25 04:29:54;;;;;;;16.93;12.03;;;;;;;16.52;100.00;101729.91;7375688;19;20883;-41
2023/06/25 04:32:24;;;;;;;18.33;12.20;;;;;;;16.67;100.00;101723.41;7406712;19;20407;-41
2023/06/25 04:34:54;;;;;;;18.67;12.90;;;;;;;16.78;100.00;101728.97;7376475;19;20447;-41
2023/06/25 04:37:23;;;;;;;24.20;13.80;;;;;;;16.81;100.00;101732.53;7402893;19;20400;-40
2023/06/25 04:39:55;;;;;;;17.07;11.63;;;;;;;16.86;100.00;101737.88;7374779;19;20807;-41
2023/06/25 04:42:25;;;;;;;21.87;14.60;;;;;;;16.97;100.00;101746.94;7402621;19;20490;-40
2023/06/25 04:44:55;;;;;;;29.03;19.57;;;;;;;17.01;100.00;101758.34;7376083;19;20846;-40
2023/06/25 04:47:24;;;;;;;27.20;17.53;;;;;;;16.94;100.00;101757.28;7405213;19;20439;-41
2023/06/25 04:49:54;;;;;;;22.93;15.57;;;;;;;16.96;100.00;101766.03;7375348;19;20997;-39
2023/06/25 04:52:24;;;;;;;33.80;22.20;;;;;;;17.07;100.00;101769.00;7405467;19;20757;-41
2023/06/25 04:54:56;;;;;;;33.47;21.10;;;;;;;17.36;100.00;101770.72;7375627;19;20510;-40
2023/06/25 04:57:25;;;;;;;32.10;20.77;;;;;;;17.63;100.00;101788.00;7402580;19;20495;-41
2023/06/25 04:59:55;;;;;;;32.07;21.60;;;;;;;17.67;100.00;101802.94;7374699;19;20502;-40
2023/06/25 05:02:24;;;;;;;48.40;32.20;;;;;;;17.69;100.00;101809.06;7404401;19;20935;-41
2023/06/25 05:04:54;;;;;;;40.57;26.73;;;;;;;17.92;100.00;101820.19;7375189;19;20439;-40
2023/06/25 05:07:24;;;;;;;48.07;30.13;;;;;;;17.96;100.00;101826.38;7402424;19;20403;-41
2023/06/25 05:09:56;;;;;;;19.37;12.30;;;;;;;18.00;100.00;101827.34;7375018;19;20451;-41
2023/06/25 05:12:26;;;;;;;26.47;16.63;;;;;;;18.08;100.00;101836.28;7401797;19;20396;-41
2023/06/25 05:14:55;;;;;;;17.50;11.90;;;;;;;18.21;100.00;101842.75;7374972;19;20655;-41
2023/06/25 05:17:25;;;;;;;17.80;11.50;;;;;;;18.14;100.00;101846.91;7401868;19;20431;-41
2023/06/25 05:19:54;;;;;;;18.20;12.60;;;;;;;18.02;100.00;101851.75;7373370;19;20990;-40
2023/06/25 05:22:24;;;;;;;16.83;11.73;;;;;;;18.00;100.00;101853.44;7403956;19;20418;-41
2023/06/25 05:24:56;;;;;;;18.97;11.07;;;;;;;17.95;100.00;101856.81;7375612;19;20415;-40
2023/06/25 05:27:26;;;;;;;17.63;11.23;;;;;;;18.06;100.00;101858.88;7404047;19;20427;-40
2023/06/25 05:29:55;;;;;;;17.80;11.20;;;;;;;18.11;100.00;101864.22;7374267;19;20462;-40
2023/06/25 05:32:25;;;;;;;19.20;12.00;;;;;;;18.22;100.00;101866.28;7401006;19;20403;-41
2023/06/25 05:34:54;;;;;;;17.37;10.70;;;;;;;18.23;100.00;101869.78;7374502;19;20808;-40
2023/06/25 05:37:24;;;;;;;18.20;10.70;;;;;;;18.32;100.00;101866.56;7402043;19;20423;-39
2023/06/25 05:39:56;;;;;;;14.60;8.17;;;;;;;18.35;100.00;101872.75;7373327;19;20451;-40
2023/06/25 05:42:26;;;;;;;14.30;9.23;;;;;;;18.40;100.00;101869.38;7400859;19;20412;-41
2023/06/25 05:44:55;;;;;;;16.00;10.83;;;;;;;18.48;100.00;101868.75;7375024;19;20433;-45
2023/06/25 05:47:25;;;;;;;17.03;9.53;;;;;;;18.53;100.00;101881.03;7401757;19;20419;-41
2023/06/25 05:49:54;;;;;;;15.40;9.63;;;;;;;18.53;100.00;101886.25;7373169;19;20855;-41
2023/06/25 05:52:24;;;;;;;16.10;10.17;;;;;;;18.55;100.00;101880.22;7400838;19;20777;-38
2023/06/25 05:54:56;;;;;;;16.13;9.40;;;;;;;18.65;100.00;101883.09;7374088;19;20435;-40
2023/06/25 05:57:26;;;;;;;10.80;7.83;;;;;;;18.75;100.00;101882.47;7401856;19;20448;-41
2023/06/25 05:59:56;;;;;;;14.60;9.47;;;;;;;18.78;100.00;101882.56;7373080;19;20510;-40
2023/06/25 06:02:25;;;;;;;12.43;8.27;;;;;;;18.83;100.00;101886.19;7401391;19;20404;-41
2023/06/25 06:04:55;;;;;;;15.23;9.03;;;;;;;18.87;100.00;101887.16;7375320;19;20434;-41
2023/06/25 06:07:25;;;;;;;15.23;8.73;;;;;;;18.89;100.00;101890.69;7400573;19;20411;-41
2023/06/25 06:09:58;;;;;;;16.70;8.30;;;;;;;18.89;100.00;101891.56;7373771;19;20463;-41
2023/06/25 06:12:29;;;;;;;12.20;7.60;;;;;;;18.88;100.00;101886.28;7401663;19;20414;-39
2023/06/25 06:14:58;;;;;;;11.93;7.50;;;;;;;18.95;100.00;101885.59;7373197;19;20501;-41
2023/06/25 06:17:28;;;;;;;10.83;7.73;;;;;;;19.02;100.00;101890.16;7400280;19;20392;-40
2023/06/25 06:19:57;;;;;;;12.50;8.10;;;;;;;19.12;100.00;101887.78;7373347;19;21544;-40
2023/06/25 06:22:27;;;;;;;10.80;7.30;;;;;;;19.26;100.00;101888.09;7400787;19;20412;-42
2023/06/25 06:24:59;;;;;;;17.00;10.03;;;;;;;19.39;100.00;101892.75;7373935;19;20419;-41
2023/06/25 06:27:29;;;;;;;12.20;8.80;;;;;;;19.40;100.00;101889.31;7402416;19;20407;-40
2023/06/25 06:30:00;;;;;;;14.80;9.27;;;;;;;19.48;100.00;101891.22;7371980;19;20522;-42
2023/06/25 06:32:29;;;;;;;13.90;8.80;;;;;;;19.59;100.00;101894.09;7401776;19;20957;-41
2023/06/25 06:34:59;;;;;;;15.67;10.03;;;;;;;19.64;100.00;101897.69;7373127;19;20443;-40
2023/06/25 06:37:28;;;;;;;11.80;6.83;;;;;;;19.72;100.00;101901.34;7399716;19;20440;-40
2023/06/25 06:40:00;;;;;;;10.73;7.90;;;;;;;19.79;100.00;101898.00;7371450;19;20467;-40
2023/06/25 06:42:30;;;;;;;13.37;7.33;;;;;;;19.88;100.00;101897.31;7398897;19;20963;-40
2023/06/25 06:45:00;;;;;;;9.97;6.63;;;;;;;19.92;100.00;101925.34;7371460;19;20459;-40
2023/06/25 06:47:29;;;;;;;9.30;6.13;;;;;;;20.03;100.00;101927.34;7399079;19;20400;-41
2023/06/25 06:50:00;;;;;;;11.63;7.13;;;;;;;20.19;100.00;101939.91;7370811;19;20455;-40
2023/06/25 06:52:29;;;;;;;11.20;7.10;;;;;;;20.27;100.00;101953.19;7398961;19;20892;-42
2023/06/25 06:55:02;;;;;;;11.00;7.37;;;;;;;20.26;100.00;101961.00;7370880;19;20471;-42
2023/06/25 06:57:31;;;;;;;11.77;7.70;;;;;;;20.41;100.00;101963.03;7399161;19;20415;-41
2023/06/25 07:00:02;;;;;;;11.30;7.00;;;;;;;20.52;100.00;101972.00;7373194;19;20463;-40
2023/06/25 07:02:32;;;;;;;10.67;7.13;;;;;;;20.51;100.00;101989.47;7401371;19;20931;-40
2023/06/25 07:05:02;;;;;;;10.03;6.73;;;;;;;20.57;100.00;101993.06;7371889;19;20982;-40
2023/06/25 07:07:31;;;;;;;8.40;6.10;;;;;;;20.69;100.00;102009.03;7401904;19;20420;-40
2023/06/25 07:10:03;;;;;;;9.03;6.20;;;;;;;20.84;100.00;102007.56;7371313;19;20855;-39
2023/06/25 07:12:33;;;;;;;13.57;6.50;;;;;;;20.89;100.00;102022.56;7399106;19;20403;-39
2023/06/25 07:15:03;;;;;;;10.03;6.40;;;;;;;20.99;100.00;102041.09;7372549;19;20434;-41
2023/06/25 07:17:32;;;;;;;20.50;14.10;;;;;;;21.10;100.00;102052.66;7398971;19;20411;-41
2023/06/25 07:20:02;;;;;;;9.97;5.50;;;;;;;21.18;100.00;102069.44;7370501;19;20463;-39
2023/06/25 07:22:32;;;;;;;12.70;7.30;;;;;;;21.30;100.00;102078.38;7402484;19;20424;-41
2023/06/25 07:25:05;;;;;;;12.60;8.80;;;;;;;21.45;100.00;102088.28;7375620;19;20439;-40
2023/06/25 07:27:35;;;;;;;18.53;11.67;;;;;;;21.52;100.00;102116.41;7404012;19;20431;-39
2023/06/25 07:30:04;;;;;;;10.93;6.33;;;;;;;21.55;100.00;102139.19;7374984;19;20538;-39
2023/06/25 07:32:34;;;;;;;11.97;5.50;;;;;;;21.55;100.00;102150.59;7402812;19;20403;-40
2023/06/25 07:35:04;;;;;;;8.40;5.13;;;;;;;21.56;100.00;102159.34;7371837;19;20760;-40
2023/06/25 07:37:33;;;;;;;9.13;5.63;;;;;;;21.59;100.00;102156.78;7396952;19;20419;-40
2023/06/25 07:40:10;;;;;;;7.93;4.90;;;;;;;21.77;100.00;102155.34;7372637;19;20982;-40
2023/06/25 07:42:39;;;;;;;10.10;5.93;;;;;;;21.79;100.00;102165.03;7397198;19;20412;-42
2023/06/25 07:45:11;;;;;;;8.07;5.10;;;;;;;21.88;100.00;102158.19;7372732;19;20470;-40
2023/06/25 07:47:40;;;;;;;10.13;6.60;;;;;;;21.99;100.00;102153.97;7404988;19;20417;-40
2023/06/25 07:50:10;;;;;;;9.53;6.60;;;;;;;22.07;100.00;102159.34;7377051;19;20530;-41
2023/06/25 07:52:40;;;;;;;10.83;5.20;;;;;;;22.23;100.00;102149.97;7404710;19;20443;-41
2023/06/25 07:55:12;;;;;;;7.40;5.27;;;;;;;22.24;100.00;102147.38;7381474;19;20443;-42
2023/06/25 07:57:42;;;;;;;12.60;5.80;;;;;;;22.33;100.00;102132.59;7407147;19;20491;-40
2023/06/25 08:00:13;;;;;;;7.80;5.90;;;;;;;22.39;100.00;102103.75;7379776;19;20886;-49
2023/06/25 08:02:43;;;;;;;10.10;6.10;;;;;;;22.37;100.00;102058.19;7406424;19;20762;-39
2023/06/25 08:05:13;;;;;;;11.63;6.87;;;;;;;22.56;100.00;102016.38;7381169;19;20530;-40
2023/06/25 08:07:42;;;;;;;8.30;6.00;;;;;;;22.58;100.00;101983.06;7410459;19;20967;-40
2023/06/25 08:10:15;;;;;;;9.03;5.93;;;;;;;22.61;100.00;101956.84;7376341;19;20454;-40
2023/06/25 08:12:44;;;;;;;7.80;5.63;;;;;;;22.68;100.00;101937.63;7404264;19;21047;-40
2023/06/25 08:15:14;;;;;;;9.33;6.37;;;;;;;22.71;100.00;101916.59;7377812;19;20459;-41
2023/06/25 08:17:43;;;;;;;11.27;6.30;;;;;;;22.77;100.00;101895.59;7404429;19;20407;-39
2023/06/25 08:20:13;;;;;;;11.53;7.20;;;;;;;22.83;100.00;101888.63;7376581;19;20805;-40
2023/06/25 08:22:43;;;;;;;10.70;6.57;;;;;;;22.93;100.00;101851.88;7404042;19;20418;-40
2023/06/25 08:25:26;;;;;;;12.47;6.90;;;;;;;23.01;100.00;101836.16;7377279;19;20443;-41
2023/06/25 08:27:56;;;;;;;10.87;6.83;;;;;;;23.11;100.00;101833.63;7401271;19;20428;-40
2023/06/25 08:30:25;;;;;;;9.97;6.70;;;;;;;23.12;100.00;101811.69;7376295;19;20447;-39
2023/06/25 08:32:55;;;;;;;16.07;8.20;;;;;;;23.26;100.00;101807.38;7403597;19;20935;-40
2023/06/25 08:35:25;;;;;;;22.03;13.33;;;;;;;23.32;100.00;101790.75;7379899;19;20789;-40
2023/06/25 08:37:54;;;;;;;23.30;13.03;;;;;;;23.37;100.00;101772.38;7403735;19;20499;-41
2023/06/25 08:40:28;;;;;;;15.90;7.97;;;;;;;23.36;100.00;101753.03;7377457;19;20454;-40
2023/06/25 08:42:58;;;;;;;18.20;10.50;;;;;;;23.49;100.00;101751.34;7404525;19;20420;-40
2023/06/25 08:45:28;;;;;;;16.50;10.37;;;;;;;23.58;100.00;101725.03;7377036;19;20452;-40
2023/06/25 08:47:59;;;;;;;21.40;12.80;;;;;;;23.67;100.00;101710.13;7402124;19;20407;-41
2023/06/25 08:50:29;;;;;;;43.77;23.53;;;;;;;23.76;100.00;101694.34;7377807;19;20515;-40
2023/06/25 08:52:59;;;;;;;36.83;20.03;;;;;;;23.63;100.00;101676.78;7403258;19;20412;-41
2023/06/25 08:55:32;;;;;;;15.33;8.87;;;;;;;23.83;100.00;101680.28;7379649;19;21116;-41
2023/06/25 08:58:02;;;;;;;41.53;20.90;;;;;;;23.90;100.00;101646.06;7403148;19;20858;-39
2023/06/25 09:00:31;;;;;;;24.37;13.00;;;;;;;24.13;100.00;101652.22;7378321;19;20458;-40
2023/06/25 09:03:01;;;;;;;27.50;14.60;;;;;;;24.06;100.00;101624.09;7404355;19;20415;-40
2023/06/25 09:05:32;;;;;;;28.40;16.30;;;;;;;23.92;100.00;101621.47;7379521;19;20425;-41
2023/06/25 09:08:01;;;;;;;13.30;8.20;;;;;;;24.08;100.00;101601.28;7404166;19;20415;-39
2023/06/25 09:10:34;;;;;;;16.40;10.00;;;;;;;24.31;100.00;101575.75;7378785;19;20458;-41
2023/06/25 09:13:04;;;;;;;42.33;24.37;;;;;;;24.43;100.00;101507.16;7407372;19;20459;-39
2023/06/25 09:15:33;;;;;;;32.57;17.13;;;;;;;24.19;100.00;101455.41;7380417;19;20456;-39
2023/06/25 09:18:03;;;;;;;31.10;17.67;;;;;;;24.46;100.00;101416.63;7406789;19;20403;-39
2023/06/25 09:20:34;;;;;;;26.00;15.60;;;;;;;24.48;100.00;101435.94;7376367;19;20463;-41
2023/06/25 09:23:05;;;;;;;40.80;23.53;;;;;;;24.53;100.00;101477.22;7403643;19;20416;-41
2023/06/25 09:25:37;;;;;;;12.43;6.77;;;;;;;24.70;100.00;101485.94;7379577;19;21050;-39
2023/06/25 09:28:08;;;;;;;21.10;13.20;;;;;;;24.68;100.00;101507.91;7403036;19;20418;-40
2023/06/25 09:30:38;;;;;;;21.60;14.07;;;;;;;24.80;100.00;101474.41;7378377;19;20473;-40
2023/06/25 09:33:08;;;;;;;15.33;8.30;;;;;;;24.94;100.00;101477.00;7404922;19;20404;-41
2023/06/25 09:35:38;;;;;;;31.57;17.30;;;;;;;24.88;100.00;101474.41;7380169;19;20520;-41
2023/06/25 09:38:08;;;;;;;35.73;19.83;;;;;;;24.58;100.00;101495.66;7402740;19;20486;-40
2023/06/25 09:40:41;;;;;;;21.43;13.23;;;;;;;24.40;100.00;101497.50;7373475;19;20530;-40
2023/06/25 09:43:10;;;;;;;37.80;21.77;;;;;;;24.55;100.00;101466.66;7403892;19;20400;-40
2023/06/25 09:45:41;;;;;;;13.30;8.10;;;;;;;24.39;100.00;101453.56;7379424;19;20515;-39
2023/06/25 09:48:12;;;;;;;38.87;22.40;;;;;;;24.38;100.00;101457.09;7403887;19;20495;-40
2023/06/25 09:50:42;;;;;;;35.43;21.33;;;;;;;24.26;100.00;101426.38;7376890;19;20479;-40
2023/06/25 09:53:15;;;;;;;33.90;19.00;;;;;;;24.33;100.00;101426.34;7399385;19;20432;-41
2023/06/25 09:55:47;;;;;;;28.80;17.37;;;;;;;24.45;100.00;101462.34;7379731;19;20450;-40
2023/06/25 09:58:17;;;;;;;13.83;8.70;;;;;;;24.79;100.00;101507.84;7405605;19;20471;-39
2023/06/25 10:00:47;;;;;;;22.77;13.70;;;;;;;25.21;100.00;101514.63;7376115;19;21028;-40
2023/06/25 10:03:18;;;;;;;20.63;11.90;;;;;;;25.24;100.00;101479.41;7404998;19;20395;-41
2023/06/25 10:05:47;;;;;;;18.00;9.87;;;;;;;24.96;100.00;101513.94;7380285;19;20475;-40
2023/06/25 10:08:18;;;;;;;30.37;17.97;;;;;;;24.68;100.00;101493.84;7402050;19;20414;-41
2023/06/25 10:11:00;;;;;;;28.93;16.90;;;;;;;24.88;100.00;101493.78;7373538;19;20840;-41
2023/06/25 10:13:30;;;;;;;52.33;29.97;;;;;;;25.36;100.00;101505.72;7400350;19;20499;-41
2023/06/25 10:16:00;;;;;;;33.30;18.43;;;;;;;25.31;100.00;101526.00;7375458;19;20423;-42
2023/06/25 10:18:30;;;;;;;50.27;27.87;;;;;;;25.61;100.00;101510.81;7399049;19;20412;-41
2023/06/25 10:21:01;;;;;;;26.47;13.77;;;;;;;25.58;100.00;101532.84;7374313;19;20803;-40
2023/06/25 10:23:31;;;;;;;18.53;11.70;;;;;;;25.82;100.00;101535.28;7399417;19;20407;-42
2023/06/25 10:26:04;;;;;;;12.93;7.17;;;;;;;25.99;100.00;101503.41;7376770;19;20419;-42
2023/06/25 10:28:34;;;;;;;31.83;16.77;;;;;;;26.15;100.00;101486.47;7401856;19;20440;-41
2023/06/25 10:31:13;;;;;;;85.17;47.77;;;;;;;26.27;100.00;101521.63;7376919;19;20439;-46
2023/06/25 10:33:43;;;;;;;65.20;35.10;;;;;;;26.25;100.00;101534.84;7394211;19;20418;-41
2023/06/25 10:36:14;;;;;;;48.17;27.70;;;;;;;26.29;100.00;101526.00;7376839;19;20443;-41
2023/06/25 10:38:44;;;;;;;16.07;10.20;;;;;;;26.50;100.00;101533.69;7400587;19;20769;-40
2023/06/25 10:41:16;;;;;;;40.67;23.63;;;;;;;26.34;100.00;101522.44;7375741;19;20502;-39
2023/06/25 10:43:46;;;;;;;23.97;14.43;;;;;;;26.08;100.00;101510.34;7399041;19;20418;-42
2023/06/25 10:46:16;;;;;;;30.10;18.00;;;;;;;25.72;100.00;101519.53;7377343;19;20419;-45
2023/06/25 10:48:47;;;;;;;23.73;15.03;;;;;;;25.62;100.00;101483.50;7400011;19;20511;-41
2023/06/25 10:51:19;;;;;;;25.10;15.60;;;;;;;25.52;100.00;101479.19;7376211;19;20487;-45
2023/06/25 10:53:49;;;;;;;25.20;15.17;;;;;;;25.61;100.00;101492.34;7399247;19;20415;-40
2023/06/25 10:56:23;;;;;;;24.83;15.60;;;;;;;25.71;100.00;101504.56;7375349;19;20486;-39
2023/06/25 10:58:56;;;;;;;25.17;14.03;;;;;;;25.82;100.00;101466.56;7399507;19;20419;-43
2023/06/25 11:01:35;;;;;;;17.87;11.23;;;;;;;25.99;100.00;101450.53;7374503;19;20526;-43
2023/06/25 11:04:15;;;;;;;31.33;18.67;;;;;;;26.14;100.00;101473.25;7396606;19;20407;-40
2023/06/25 11:06:45;;;;;;;44.30;25.10;;;;;;;26.21;100.00;101506.69;7374679;19;20447;-41
2023/06/25 11:09:15;;;;;;;28.30;16.17;;;;;;;26.15;100.00;101535.84;7400101;19;20503;-43
2023/06/25 11:11:47;;;;;;;33.50;21.50;;;;;;;26.34;100.00;101525.06;7374887;19;20443;-41
2023/06/25 11:14:16;;;;;;;34.60;21.27;;;;;;;26.54;100.00;101530.97;7401132;19;21180;-40
2023/06/25 11:16:47;;;;;;;36.40;22.17;;;;;;;26.47;100.00;101497.56;7376313;19;20511;-41
2023/06/25 11:19:17;;;;;;;18.10;11.97;;;;;;;26.76;100.00;101501.56;7400848;19;20467;-43